createdAt,value
2023-03-22T00:01:06.008Z,10.1
2023-03-22T00:02:22.296Z,9.6
2023-03-22T00:03:38.585Z,9.6
2023-03-22T00:04:54.891Z,10
2023-03-22T00:06:11.187Z,10.1
2023-03-22T00:07:27.472Z,9.5
2023-03-22T00:08:42.778Z,9.7
2023-03-22T00:09:59.085Z,9.4
2023-03-22T00:11:15.382Z,10.2
2023-03-22T00:12:31.667Z,9.1
2023-03-22T00:13:47.960Z,9.1
2023-03-22T00:15:04.258Z,9
2023-03-22T00:16:19.582Z,9.3
2023-03-22T00:17:35.873Z,9
2023-03-22T00:18:52.157Z,9.3
2023-03-22T00:20:08.465Z,9.3
2023-03-22T00:21:24.744Z,8.7
2023-03-22T00:22:41.036Z,9
2023-03-22T00:23:57.338Z,9.3
2023-03-22T00:25:13.636Z,8.8
2023-03-22T00:26:29.921Z,8.5
2023-03-22T00:27:46.213Z,8.6
2023-03-22T00:29:02.524Z,8.9
2023-03-22T00:30:18.801Z,9.3
2023-03-22T00:31:35.096Z,8.4
2023-03-22T00:32:50.413Z,8.2
2023-03-22T00:34:06.000Z,8.3
2023-03-22T00:35:23.006Z,8.2
2023-03-22T00:36:39.300Z,7.9
2023-03-22T00:37:55.601Z,7.5
2023-03-22T00:39:11.883Z,8.2
2023-03-22T00:40:28.182Z,7.7
2023-03-22T00:41:44.469Z,7.8
2023-03-22T00:43:00.761Z,8.2
2023-03-22T00:44:17.070Z,7.5
2023-03-22T00:45:33.366Z,8.4
2023-03-22T00:46:49.643Z,7.1
2023-03-22T00:48:05.954Z,7.7
2023-03-22T00:49:21.265Z,7.9
2023-03-22T00:50:37.546Z,7.2
2023-03-22T00:51:53.845Z,7.3
2023-03-22T00:53:10.141Z,7.5
2023-03-22T00:54:26.431Z,8.1
2023-03-22T00:55:42.721Z,6.6
2023-03-22T00:56:59.013Z,6.7
2023-03-22T00:58:15.307Z,6.9
2023-03-22T00:59:31.607Z,7.2
2023-03-22T01:00:47.899Z,6.8
2023-03-22T01:02:04.188Z,6.5
2023-03-22T01:03:20.494Z,7
2023-03-22T01:04:36.782Z,5.9
2023-03-22T01:05:52.091Z,6.7
2023-03-22T01:07:08.387Z,6.5
2023-03-22T01:08:24.685Z,7.1
2023-03-22T01:09:40.976Z,6.1
2023-03-22T01:10:57.277Z,6.7
2023-03-22T01:12:13.575Z,6.3
2023-03-22T01:13:29.855Z,5.9
2023-03-22T01:14:46.155Z,6.3
2023-03-22T01:16:02.444Z,6.1
2023-03-22T01:17:18.744Z,6
2023-03-22T01:18:35.036Z,6.2
2023-03-22T01:19:51.329Z,6.5
2023-03-22T01:21:07.625Z,6.7
2023-03-22T01:22:22.932Z,6.2
2023-03-22T01:23:39.234Z,5.7
2023-03-22T01:24:55.521Z,6
2023-03-22T01:26:11.818Z,6.3
2023-03-22T01:27:28.110Z,6.1
2023-03-22T01:28:44.418Z,6.2
2023-03-22T01:30:00.695Z,6.2
2023-03-22T01:31:16.986Z,6.3
2023-03-22T01:32:33.285Z,6
2023-03-22T01:33:49.576Z,5.5
2023-03-22T01:35:05.871Z,5.7
2023-03-22T01:36:22.166Z,6.4
2023-03-22T01:37:38.465Z,5.9
2023-03-22T01:38:53.776Z,7
2023-03-22T01:40:10.065Z,6.4
2023-03-22T01:41:26.361Z,5.9
2023-03-22T01:42:42.652Z,6.4
2023-03-22T01:43:58.943Z,6.6
2023-03-22T01:45:15.255Z,6.7
2023-03-22T01:46:31.550Z,6.4
2023-03-22T01:47:47.823Z,6.8
2023-03-22T01:49:04.120Z,6.4
2023-03-22T01:50:20.416Z,6.7
2023-03-22T01:51:36.720Z,7.2
2023-03-22T01:52:53.006Z,7.2
2023-03-22T01:54:09.292Z,7.5
2023-03-22T01:55:24.603Z,7.5
2023-03-22T01:56:40.904Z,6.7
2023-03-22T01:57:57.195Z,7.3
2023-03-22T01:59:13.487Z,6.6
2023-03-22T02:00:29.798Z,7
2023-03-22T02:01:46.088Z,6.6
2023-03-22T02:03:02.380Z,6.9
2023-03-22T02:04:18.664Z,7.2
2023-03-22T02:05:34.955Z,7.3
2023-03-22T02:06:51.265Z,6.5
2023-03-22T02:08:07.560Z,6.5
2023-03-22T02:09:23.851Z,6.7
2023-03-22T02:10:40.130Z,7
2023-03-22T02:11:55.459Z,6.8
2023-03-22T02:13:11.737Z,6.6
2023-03-22T02:14:28.043Z,6
2023-03-22T02:15:44.330Z,6.4
2023-03-22T02:17:00.624Z,6.2
2023-03-22T02:18:16.925Z,5.8
2023-03-22T02:19:33.209Z,6.3
2023-03-22T02:20:49.509Z,6.3
2023-03-22T02:22:05.799Z,5.9
2023-03-22T02:23:22.098Z,5.8
2023-03-22T02:24:38.394Z,6
2023-03-22T02:25:54.678Z,5.7
2023-03-22T02:27:10.981Z,6.1
2023-03-22T02:28:26.284Z,5.8
2023-03-22T02:29:42.583Z,6.4
2023-03-22T02:30:58.880Z,5.7
2023-03-22T02:32:15.179Z,6.3
2023-03-22T02:33:31.466Z,5.7
2023-03-22T02:34:47.765Z,6
2023-03-22T02:36:04.053Z,5.6
2023-03-22T02:37:20.345Z,6.4
2023-03-22T02:38:36.638Z,5.9
2023-03-22T02:39:52.949Z,5.9
2023-03-22T02:41:09.224Z,6.1
2023-03-22T02:42:25.524Z,5.7
2023-03-22T02:43:41.828Z,5.9
2023-03-22T02:44:57.137Z,6.4
2023-03-22T02:46:13.418Z,5.9
2023-03-22T02:47:29.714Z,5.7
2023-03-22T02:48:46.009Z,5.6
2023-03-22T02:50:02.299Z,5.5
2023-03-22T02:51:18.613Z,5.4
2023-03-22T02:52:34.889Z,6.3
2023-03-22T02:53:51.195Z,5.9
2023-03-22T02:55:07.482Z,5.8
2023-03-22T02:56:23.770Z,5.8
2023-03-22T02:57:40.063Z,5.8
2023-03-22T02:58:56.360Z,5.5
2023-03-22T03:00:12.651Z,5.6
2023-03-22T03:01:27.965Z,5.9
2023-03-22T03:02:44.257Z,5.6
2023-03-22T03:04:00.558Z,5.7
2023-03-22T03:05:16.838Z,5.8
2023-03-22T03:06:33.146Z,6
2023-03-22T03:07:49.441Z,5.5
2023-03-22T03:09:05.724Z,6.2
2023-03-22T03:10:22.025Z,6.1
2023-03-22T03:11:38.308Z,5.6
2023-03-22T03:12:54.621Z,5.7
2023-03-22T03:14:10.917Z,5.4
2023-03-22T03:15:27.201Z,5.7
2023-03-22T03:16:43.494Z,5.6
2023-03-22T03:17:58.807Z,6
2023-03-22T03:19:15.088Z,5.4
2023-03-22T03:20:31.396Z,5.7
2023-03-22T03:21:47.684Z,5.8
2023-03-22T03:23:03.975Z,5.9
2023-03-22T03:24:20.279Z,5.9
2023-03-22T03:25:36.570Z,5.3
2023-03-22T03:26:52.865Z,5.8
2023-03-22T03:28:09.162Z,5.7
2023-03-22T03:29:25.437Z,5.6
2023-03-22T03:30:41.752Z,5.7
2023-03-22T03:31:58.035Z,5.1
2023-03-22T03:33:14.326Z,5.4
2023-03-22T03:34:29.652Z,5.6
2023-03-22T03:35:45.929Z,5.6
2023-03-22T03:37:02.215Z,5.8
2023-03-22T03:38:18.519Z,4.9
2023-03-22T03:39:34.808Z,5.4
2023-03-22T03:40:51.104Z,5.3
2023-03-22T03:42:07.390Z,5.1
2023-03-22T03:43:23.704Z,5.3
2023-03-22T03:44:39.989Z,5.8
2023-03-22T03:45:56.288Z,5.7
2023-03-22T03:47:12.581Z,4.9
2023-03-22T03:48:28.863Z,5.1
2023-03-22T03:49:45.164Z,5.5
2023-03-22T03:51:00.471Z,5.5
2023-03-22T03:52:16.767Z,5
2023-03-22T03:53:33.052Z,5.1
2023-03-22T03:54:49.365Z,5.1
2023-03-22T03:56:05.639Z,5.3
2023-03-22T03:57:21.942Z,5.2
2023-03-22T03:58:38.236Z,5.3
2023-03-22T03:59:54.523Z,5.4
2023-03-22T04:01:10.817Z,5.7
2023-03-22T04:02:27.108Z,5.4
2023-03-22T04:03:43.403Z,5.2
2023-03-22T04:04:59.705Z,5.5
2023-03-22T04:06:15.996Z,5.1
2023-03-22T04:07:31.316Z,5.5
2023-03-22T04:08:47.600Z,6
2023-03-22T04:10:03.898Z,5.1
2023-03-22T04:11:20.207Z,5.1
2023-03-22T04:12:36.484Z,5.5
2023-03-22T04:13:52.786Z,5
2023-03-22T04:15:09.075Z,5.7
2023-03-22T04:16:25.368Z,5.2
2023-03-22T04:17:41.673Z,5.4
2023-03-22T04:18:57.962Z,5.3
2023-03-22T04:20:14.246Z,5
2023-03-22T04:21:30.550Z,5.6
2023-03-22T04:22:46.836Z,5.5
2023-03-22T04:24:02.150Z,6.2
2023-03-22T04:25:18.442Z,5.8
2023-03-22T04:26:34.729Z,5.6
2023-03-22T04:27:51.019Z,5.5
2023-03-22T04:29:07.329Z,6
2023-03-22T04:30:23.614Z,5.6
2023-03-22T04:31:38.924Z,5.4
2023-03-22T04:32:55.234Z,6.4
2023-03-22T04:34:11.523Z,6.6
2023-03-22T04:35:27.806Z,6.1
2023-03-22T04:36:44.109Z,5.6
2023-03-22T04:38:00.402Z,5.9
2023-03-22T04:39:16.698Z,6.3
2023-03-22T04:40:32.995Z,5.7
2023-03-22T04:41:49.290Z,6.6
2023-03-22T04:43:05.577Z,6.1
2023-03-22T04:44:21.868Z,6
2023-03-22T04:45:38.167Z,5.9
2023-03-22T04:46:54.479Z,5.5
2023-03-22T04:48:09.738Z,7.2
2023-03-22T04:49:26.019Z,6
2023-03-22T04:50:42.258Z,5.8
2023-03-22T04:51:58.499Z,6.3
2023-03-22T04:53:14.807Z,6
2023-03-22T04:54:31.047Z,6.1
2023-03-22T04:55:47.301Z,6.7
2023-03-22T04:57:03.597Z,6.2
2023-03-22T04:58:19.838Z,6.3
2023-03-22T04:59:36.072Z,6.1
2023-03-22T05:00:52.330Z,6.2
2023-03-22T05:02:08.561Z,6.4
2023-03-22T05:03:24.794Z,5.8
2023-03-22T05:04:40.054Z,6.3
2023-03-22T05:05:56.292Z,6.6
2023-03-22T05:07:12.536Z,6.5
2023-03-22T05:08:28.779Z,6.5
2023-03-22T05:09:45.008Z,7
2023-03-22T05:11:01.258Z,6.9
2023-03-22T05:12:17.516Z,6.7
2023-03-22T05:13:33.746Z,7
2023-03-22T05:14:49.980Z,6.6
2023-03-22T05:16:06.223Z,7.1
2023-03-22T05:17:22.452Z,7
2023-03-22T05:18:38.701Z,7
2023-03-22T05:19:54.942Z,7
2023-03-22T05:21:10.192Z,7.1
2023-03-22T05:22:26.441Z,7.9
2023-03-22T05:23:42.684Z,6.7
2023-03-22T05:24:58.918Z,6.7
2023-03-22T05:26:15.149Z,6.9
2023-03-22T05:27:31.402Z,7.3
2023-03-22T05:28:47.650Z,7.2
2023-03-22T05:30:03.878Z,7.5
2023-03-22T05:31:20.120Z,6.9
2023-03-22T05:32:36.363Z,6.6
2023-03-22T05:33:52.595Z,7.1
2023-03-22T05:35:08.848Z,7.2
2023-03-22T05:36:25.073Z,7.5
2023-03-22T05:37:40.339Z,7
2023-03-22T05:38:56.570Z,6.9
2023-03-22T05:40:12.821Z,6.9
2023-03-22T05:41:29.050Z,7.6
2023-03-22T05:42:45.311Z,7.4
2023-03-22T05:44:01.551Z,7.3
2023-03-22T05:45:17.780Z,8.2
2023-03-22T05:46:34.034Z,7.6
2023-03-22T05:47:50.274Z,7.4
2023-03-22T05:49:06.504Z,7.3
2023-03-22T05:50:22.749Z,7.8
2023-03-22T05:51:38.973Z,8
2023-03-22T05:52:55.224Z,7.8
2023-03-22T05:54:10.484Z,7.4
2023-03-22T05:55:26.727Z,7.5
2023-03-22T05:56:42.961Z,7.1
2023-03-22T05:57:59.199Z,7.9
2023-03-22T05:59:15.437Z,7.6
2023-03-22T06:00:31.671Z,7.8
2023-03-22T06:01:47.922Z,7.8
2023-03-22T06:03:04.164Z,7.3
2023-03-22T06:04:20.413Z,7.6
2023-03-22T06:05:36.645Z,8.2
2023-03-22T06:06:52.895Z,7.3
2023-03-22T06:08:09.129Z,7.7
2023-03-22T06:09:25.356Z,8.1
2023-03-22T06:10:40.610Z,8.2
2023-03-22T06:11:56.868Z,7.1
2023-03-22T06:13:13.092Z,8.3
2023-03-22T06:14:29.334Z,8.6
2023-03-22T06:15:45.597Z,8.1
2023-03-22T06:17:01.823Z,7.3
2023-03-22T06:18:18.060Z,8
2023-03-22T06:19:34.295Z,8.7
2023-03-22T06:20:50.547Z,8
2023-03-22T06:22:06.786Z,8.6
2023-03-22T06:23:23.019Z,7.3
2023-03-22T06:24:39.262Z,7.9
2023-03-22T06:25:55.498Z,9
2023-03-22T06:27:10.755Z,8.1
2023-03-22T06:28:27.000Z,8.5
2023-03-22T06:29:43.233Z,7.6
2023-03-22T06:30:59.488Z,8.2
2023-03-22T06:32:15.728Z,7.5
2023-03-22T06:33:31.953Z,8
2023-03-22T06:34:48.191Z,8.4
2023-03-22T06:36:04.454Z,8.1
2023-03-22T06:37:20.669Z,8.1
2023-03-22T06:38:36.914Z,9
2023-03-22T06:39:53.159Z,7.9
2023-03-22T06:41:09.410Z,8.2
2023-03-22T06:42:25.651Z,7.8
2023-03-22T06:43:40.902Z,7.5
2023-03-22T06:44:57.147Z,7.5
2023-03-22T06:46:13.380Z,8.2
2023-03-22T06:47:29.607Z,9.6
2023-03-22T06:48:45.856Z,11.6
2023-03-22T06:50:02.100Z,12
2023-03-22T06:51:18.336Z,9.4
2023-03-22T06:52:34.579Z,9.9
2023-03-22T06:53:50.813Z,8.5
2023-03-22T06:55:07.059Z,9.5
2023-03-22T06:56:23.293Z,10.3
2023-03-22T06:57:39.537Z,9.9
2023-03-22T06:58:55.777Z,10.4
2023-03-22T07:00:11.023Z,10.3
2023-03-22T07:01:27.268Z,12.3
2023-03-22T07:02:43.509Z,11.2
2023-03-22T07:03:59.765Z,11.7
2023-03-22T07:05:15.993Z,11.4
2023-03-22T07:06:32.240Z,10.4
2023-03-22T07:07:48.486Z,11
2023-03-22T07:09:04.704Z,9.2
2023-03-22T07:10:20.953Z,9.3
2023-03-22T07:11:37.190Z,9.4
2023-03-22T07:12:53.437Z,8.9
2023-03-22T07:14:09.677Z,8.5
2023-03-22T07:15:25.912Z,8.4
2023-03-22T07:16:41.177Z,8
2023-03-22T07:17:57.427Z,7.6
2023-03-22T07:19:13.650Z,8.3
2023-03-22T07:20:29.887Z,7.5
2023-03-22T07:21:46.142Z,7.3
2023-03-22T07:23:02.378Z,7.5
2023-03-22T07:24:18.616Z,7.8
2023-03-22T07:25:34.845Z,7.9
2023-03-22T07:26:51.096Z,7.7
2023-03-22T07:28:07.334Z,8.2
2023-03-22T07:29:23.571Z,7.9
2023-03-22T07:30:39.811Z,7.3
2023-03-22T07:31:56.058Z,8.4
2023-03-22T07:33:11.313Z,8.4
2023-03-22T07:34:27.551Z,7.5
2023-03-22T07:35:43.783Z,7.9
2023-03-22T07:37:00.027Z,8.1
2023-03-22T07:38:16.276Z,7.6
2023-03-22T07:39:32.515Z,7.4
2023-03-22T07:40:48.745Z,7.2
2023-03-22T07:42:05.003Z,7.9
2023-03-22T07:43:21.240Z,7.8
2023-03-22T07:44:37.465Z,7.6
2023-03-22T07:45:53.720Z,7.4
2023-03-22T07:47:09.955Z,7.5
2023-03-22T07:48:26.202Z,7.9
2023-03-22T07:49:41.449Z,8.5
2023-03-22T07:50:57.700Z,8.7
2023-03-22T07:52:13.940Z,8.9
2023-03-22T07:53:30.163Z,9.9
2023-03-22T07:54:46.415Z,11.9
2023-03-22T07:56:02.653Z,8.2
2023-03-22T07:57:18.897Z,11.7
2023-03-22T07:58:35.128Z,9.4
2023-03-22T07:59:51.369Z,9.2
2023-03-22T08:01:07.615Z,8.8
2023-03-22T08:02:23.853Z,8.8
2023-03-22T08:03:40.109Z,8.1
2023-03-22T08:04:56.340Z,9.9
2023-03-22T08:06:11.600Z,8.7
2023-03-22T08:07:27.844Z,8
2023-03-22T08:08:44.072Z,7.8
2023-03-22T08:10:00.305Z,8.1
2023-03-22T08:11:16.562Z,8.3
2023-03-22T08:12:32.787Z,10
2023-03-22T08:13:49.032Z,10
2023-03-22T08:15:05.269Z,9.6
2023-03-22T08:16:21.504Z,8.9
2023-03-22T08:17:37.755Z,8.1
2023-03-22T08:18:53.995Z,7.2
2023-03-22T08:20:10.222Z,8.5
2023-03-22T08:21:26.477Z,8
2023-03-22T08:22:41.733Z,7.5
2023-03-22T08:23:57.957Z,8.2
2023-03-22T08:25:14.202Z,8.8
2023-03-22T08:26:30.443Z,7.6
2023-03-22T08:27:46.680Z,8.7
2023-03-22T08:29:02.925Z,7.4
2023-03-22T08:30:19.174Z,8.7
2023-03-22T08:31:35.425Z,7.3
2023-03-22T08:32:51.641Z,8.4
2023-03-22T08:34:07.895Z,8
2023-03-22T08:35:24.126Z,7.1
2023-03-22T08:36:40.366Z,7.7
2023-03-22T08:37:56.611Z,8.2
2023-03-22T08:39:11.871Z,7.3
2023-03-22T08:40:28.096Z,7.5
2023-03-22T08:41:44.342Z,7
2023-03-22T08:43:00.591Z,7.1
2023-03-22T08:44:16.830Z,8.1
2023-03-22T08:45:33.072Z,7.1
2023-03-22T08:46:48.317Z,8.1
2023-03-22T08:48:04.569Z,7.1
2023-03-22T08:49:20.801Z,7.7
2023-03-22T08:50:37.047Z,7.3
2023-03-22T08:51:53.280Z,7
2023-03-22T08:53:09.528Z,7.4
2023-03-22T08:54:25.769Z,7.3
2023-03-22T08:55:42.013Z,7.1
2023-03-22T08:56:58.250Z,6.4
2023-03-22T08:58:14.493Z,7.1
2023-03-22T08:59:30.716Z,6.9
2023-03-22T09:00:46.985Z,7.4
2023-03-22T09:02:03.209Z,6.6
2023-03-22T09:03:18.466Z,6.5
2023-03-22T09:04:34.706Z,6.3
2023-03-22T09:05:50.945Z,6.8
2023-03-22T09:07:07.186Z,6.9
2023-03-22T09:08:23.423Z,7.1
2023-03-22T09:09:39.665Z,7.3
2023-03-22T09:10:55.890Z,6.4
2023-03-22T09:12:12.154Z,7
2023-03-22T09:13:28.385Z,6.3
2023-03-22T09:14:44.623Z,6.3
2023-03-22T09:16:00.861Z,6.1
2023-03-22T09:17:17.103Z,5.7
2023-03-22T09:18:33.347Z,5.6
2023-03-22T09:19:48.606Z,5
2023-03-22T09:21:04.837Z,5.4
2023-03-22T09:22:21.056Z,5.7
2023-03-22T09:23:37.306Z,4.9
2023-03-22T09:24:53.542Z,5.2
2023-03-22T09:26:09.806Z,4.7
2023-03-22T09:27:26.019Z,4.6
2023-03-22T09:28:42.271Z,5.1
2023-03-22T09:29:58.500Z,4.9
2023-03-22T09:31:14.732Z,4.9
2023-03-22T09:32:30.981Z,4.5
2023-03-22T09:33:47.223Z,4.5
2023-03-22T09:35:03.449Z,4.9
2023-03-22T09:36:18.716Z,5.1
2023-03-22T09:37:34.950Z,5.8
2023-03-22T09:38:51.183Z,5.1
2023-03-22T09:40:07.444Z,5.2
2023-03-22T09:41:23.656Z,4.8
2023-03-22T09:42:39.912Z,4.3
2023-03-22T09:43:56.162Z,4.4
2023-03-22T09:45:12.388Z,4.4
2023-03-22T09:46:28.626Z,4.2
2023-03-22T09:47:44.878Z,4.9
2023-03-22T09:49:01.103Z,3.6
2023-03-22T09:50:17.336Z,3.6
2023-03-22T09:51:33.573Z,3.6
2023-03-22T09:52:48.843Z,3.2
2023-03-22T09:54:05.000Z,3
2023-03-22T09:55:21.319Z,3.1
2023-03-22T09:56:37.560Z,3.3
2023-03-22T09:57:53.784Z,3.1
2023-03-22T09:59:10.019Z,3.1
2023-03-22T10:00:26.277Z,3.1
2023-03-22T10:01:42.498Z,3.3
2023-03-22T10:02:58.750Z,3.7
2023-03-22T10:04:14.984Z,3.1
2023-03-22T10:05:31.213Z,3.5
2023-03-22T10:06:47.465Z,3.5
2023-03-22T10:08:03.719Z,3.1
2023-03-22T10:09:18.957Z,3.2
2023-03-22T10:10:35.186Z,3.3
2023-03-22T10:11:51.429Z,3.9
2023-03-22T10:13:07.679Z,3.5
2023-03-22T10:14:23.922Z,3.3
2023-03-22T10:15:40.152Z,3.6
2023-03-22T10:16:56.399Z,3
2023-03-22T10:18:12.645Z,3.5
2023-03-22T10:19:28.867Z,3.2
2023-03-22T10:20:45.093Z,3.1
2023-03-22T10:22:01.350Z,3.3
2023-03-22T10:23:17.584Z,3.1
2023-03-22T10:24:33.832Z,2.3
2023-03-22T10:25:49.083Z,2.5
2023-03-22T10:27:05.324Z,2.9
2023-03-22T10:28:21.543Z,2.8
2023-03-22T10:29:37.794Z,3.2
2023-03-22T10:30:54.036Z,3
2023-03-22T10:32:10.284Z,3.6
2023-03-22T10:33:26.499Z,4
2023-03-22T10:34:42.735Z,3.4
2023-03-22T10:35:58.976Z,3.5
2023-03-22T10:37:15.219Z,3.6
2023-03-22T10:38:31.452Z,3.4
2023-03-22T10:39:47.694Z,3.5
2023-03-22T10:41:03.935Z,3
2023-03-22T10:42:19.186Z,3.8
2023-03-22T10:43:35.447Z,4.2
2023-03-22T10:44:51.678Z,3.6
2023-03-22T10:46:07.914Z,3.4
2023-03-22T10:47:24.141Z,3.4
2023-03-22T10:48:40.404Z,3.5
2023-03-22T10:49:56.626Z,3.1
2023-03-22T10:51:12.874Z,3.7
2023-03-22T10:52:29.121Z,3.6
2023-03-22T10:53:45.363Z,3.4
2023-03-22T10:55:01.576Z,2.9
2023-03-22T10:56:17.827Z,3
2023-03-22T10:57:34.067Z,3.4
2023-03-22T10:58:49.339Z,2.8
2023-03-22T11:00:05.547Z,2.6
2023-03-22T11:01:21.795Z,3.2
2023-03-22T11:02:38.030Z,3
2023-03-22T11:03:54.273Z,2.7
2023-03-22T11:05:10.531Z,2.6
2023-03-22T11:06:26.752Z,2.3
2023-03-22T11:07:43.007Z,3
2023-03-22T11:08:59.247Z,2.7
2023-03-22T11:10:15.474Z,2.6
2023-03-22T11:11:31.701Z,2.7
2023-03-22T11:12:47.963Z,2.6
2023-03-22T11:14:04.176Z,2.7
2023-03-22T11:15:19.462Z,3.2
2023-03-22T11:16:35.681Z,2.5
2023-03-22T11:17:51.919Z,3.2
2023-03-22T11:19:08.151Z,3.3
2023-03-22T11:20:24.391Z,2.9
2023-03-22T11:21:40.648Z,2.8
2023-03-22T11:22:56.872Z,2.8
2023-03-22T11:24:13.104Z,2.7
2023-03-22T11:25:29.372Z,2.6
2023-03-22T11:26:45.599Z,2.4
2023-03-22T11:28:01.835Z,2.6
2023-03-22T11:29:18.083Z,2.4
2023-03-22T11:30:34.328Z,2.1
2023-03-22T11:31:49.552Z,3
2023-03-22T11:33:05.794Z,3.2
2023-03-22T11:34:22.046Z,2.9
2023-03-22T11:35:38.291Z,2.5
2023-03-22T11:36:54.529Z,2.9
2023-03-22T11:38:10.761Z,2.5
2023-03-22T11:39:26.984Z,2.6
2023-03-22T11:40:43.228Z,2.1
2023-03-22T11:41:59.470Z,2.1
2023-03-22T11:43:15.721Z,2.1
2023-03-22T11:44:31.973Z,2
2023-03-22T11:45:48.209Z,2.2
2023-03-22T11:47:04.418Z,2.1
2023-03-22T11:48:19.672Z,1.8
2023-03-22T11:49:35.927Z,2.3
2023-03-22T11:50:52.177Z,2
2023-03-22T11:52:08.397Z,2
2023-03-22T11:53:24.628Z,1.7
2023-03-22T11:54:40.881Z,1.6
2023-03-22T11:55:57.109Z,1.8
2023-03-22T11:57:13.366Z,1.7
2023-03-22T11:58:29.599Z,2.1
2023-03-22T11:59:45.853Z,1.8
2023-03-22T12:01:02.070Z,1.9
2023-03-22T12:02:18.301Z,1.7
2023-03-22T12:03:34.554Z,1.8
2023-03-22T12:04:49.810Z,1.8
2023-03-22T12:06:06.033Z,1.7
2023-03-22T12:07:22.270Z,1.9
2023-03-22T12:08:38.530Z,2.4
2023-03-22T12:09:54.747Z,1.7
2023-03-22T12:11:10.991Z,1.6
2023-03-22T12:12:27.246Z,1.6
2023-03-22T12:13:43.481Z,2
2023-03-22T12:14:59.710Z,1.9
2023-03-22T12:16:15.943Z,1.7
2023-03-22T12:17:32.186Z,1.5
2023-03-22T12:18:48.446Z,1.6
2023-03-22T12:20:04.678Z,1.8
2023-03-22T12:21:19.915Z,1.6
2023-03-22T12:22:36.172Z,1.6
2023-03-22T12:23:52.403Z,1.5
2023-03-22T12:25:08.644Z,2
2023-03-22T12:26:24.887Z,1.9
2023-03-22T12:27:41.130Z,2
2023-03-22T12:28:57.352Z,1.8
2023-03-22T12:30:13.600Z,1.6
2023-03-22T12:31:29.829Z,1.8
2023-03-22T12:32:46.097Z,2.2
2023-03-22T12:34:02.329Z,1.8
2023-03-22T12:35:18.556Z,1.7
2023-03-22T12:36:34.802Z,1.4
2023-03-22T12:37:50.041Z,1.8
2023-03-22T12:39:06.286Z,1.6
2023-03-22T12:40:22.514Z,1.9
2023-03-22T12:41:38.780Z,1.6
2023-03-22T12:42:54.999Z,1.6
2023-03-22T12:44:11.234Z,1.7
2023-03-22T12:45:27.493Z,1.5
2023-03-22T12:46:43.737Z,1.6
2023-03-22T12:47:59.970Z,1.6
2023-03-22T12:49:16.196Z,1.7
2023-03-22T12:50:32.438Z,1.7
2023-03-22T12:51:48.690Z,1.7
2023-03-22T12:53:04.932Z,1.4
2023-03-22T12:54:20.161Z,1.7
2023-03-22T12:55:36.399Z,1.4
2023-03-22T12:56:52.648Z,1.4
2023-03-22T12:58:08.903Z,1.4
2023-03-22T12:59:25.140Z,1.4
2023-03-22T13:00:41.380Z,1.5
2023-03-22T13:01:56.646Z,1.6
2023-03-22T13:03:12.869Z,1.2
2023-03-22T13:04:29.103Z,1.2
2023-03-22T13:05:45.345Z,1.5
2023-03-22T13:07:01.611Z,1.4
2023-03-22T13:08:17.820Z,1.4
2023-03-22T13:09:34.059Z,1.2
2023-03-22T13:10:50.303Z,1.3
2023-03-22T13:12:06.565Z,1.1
2023-03-22T13:13:22.781Z,1.2
2023-03-22T13:14:39.020Z,1.1
2023-03-22T13:15:55.277Z,1.1
2023-03-22T13:17:11.501Z,1.3
2023-03-22T13:18:26.755Z,1.3
2023-03-22T13:19:42.998Z,1.4
2023-03-22T13:20:59.239Z,1.5
2023-03-22T13:22:15.476Z,1.9
2023-03-22T13:23:31.708Z,1.5
2023-03-22T13:24:47.948Z,1.5
2023-03-22T13:26:04.202Z,1.5
2023-03-22T13:27:20.460Z,1.7
2023-03-22T13:28:36.685Z,1.5
2023-03-22T13:29:52.915Z,1.5
2023-03-22T13:31:09.176Z,1.3
2023-03-22T13:32:25.401Z,1.5
2023-03-22T13:33:41.643Z,1.4
2023-03-22T13:34:56.885Z,1.7
2023-03-22T13:36:13.124Z,1.2
2023-03-22T13:37:29.384Z,1.4
2023-03-22T13:38:45.606Z,1.2
2023-03-22T13:40:01.867Z,1.2
2023-03-22T13:41:18.078Z,1.3
2023-03-22T13:42:34.323Z,1.4
2023-03-22T13:43:50.557Z,1.2
2023-03-22T13:45:06.809Z,1
2023-03-22T13:46:23.072Z,1.3
2023-03-22T13:47:39.299Z,1.1
2023-03-22T13:48:55.537Z,1.4
2023-03-22T13:50:11.777Z,1.2
2023-03-22T13:51:27.021Z,1.2
2023-03-22T13:52:43.281Z,1.4
2023-03-22T13:53:59.513Z,1.4
2023-03-22T13:55:15.738Z,1.4
2023-03-22T13:56:31.974Z,1
2023-03-22T13:57:48.209Z,1.4
2023-03-22T13:59:04.444Z,1.1
2023-03-22T14:00:20.699Z,1.9
2023-03-22T14:01:36.953Z,1.1
2023-03-22T14:02:53.181Z,1.3
2023-03-22T14:04:09.405Z,1.5
2023-03-22T14:05:25.642Z,1.3
2023-03-22T14:06:41.881Z,1.2
2023-03-22T14:07:57.162Z,1.2
2023-03-22T14:09:13.412Z,1.3
2023-03-22T14:10:29.614Z,1.7
2023-03-22T14:11:45.878Z,1.7
2023-03-22T14:13:02.130Z,1.3
2023-03-22T14:14:18.346Z,1.5
2023-03-22T14:15:34.585Z,1.6
2023-03-22T14:16:50.831Z,1.1
2023-03-22T14:18:07.066Z,1.4
2023-03-22T14:19:23.295Z,1.1
2023-03-22T14:20:39.554Z,1.1
2023-03-22T14:52:23.556Z,1.3
2023-03-22T14:53:39.789Z,1.2
2023-03-22T14:54:56.031Z,1.1
2023-03-22T14:56:12.282Z,1.2
2023-03-22T14:57:27.549Z,1.5
2023-03-22T14:58:43.775Z,1.3
2023-03-22T15:00:00.034Z,1.3
2023-03-22T15:01:16.243Z,1.3
2023-03-22T15:02:32.515Z,1.3
2023-03-22T15:03:48.736Z,1.2
2023-03-22T15:05:04.965Z,1.2
2023-03-22T15:06:21.205Z,1.3
2023-03-22T15:07:37.482Z,1.4
2023-03-22T15:08:53.685Z,1.2
2023-03-22T15:10:09.951Z,1.4
2023-03-22T15:11:26.173Z,1.3
2023-03-22T15:12:42.404Z,1.3
2023-03-22T15:13:57.663Z,1.2
2023-03-22T15:15:13.932Z,1.3
2023-03-22T15:16:30.153Z,1.2
2023-03-22T15:17:46.381Z,1.3
2023-03-22T15:19:02.661Z,1.2
2023-03-22T15:20:18.887Z,1.3
2023-03-22T15:21:35.120Z,1.2
2023-03-22T15:22:51.338Z,1.2
2023-03-22T15:24:07.613Z,1.3
2023-03-22T15:25:23.846Z,1.3
2023-03-22T15:26:40.061Z,1.2
2023-03-22T15:27:56.297Z,1.2
2023-03-22T15:29:12.544Z,1.1
2023-03-22T15:30:27.821Z,1.2
2023-03-22T15:31:44.069Z,1.3
2023-03-22T15:33:00.295Z,1.1
2023-03-22T15:34:16.516Z,1
2023-03-22T15:35:32.760Z,1.4
2023-03-22T15:36:48.984Z,1.2
2023-03-22T15:38:05.251Z,1.2
2023-03-22T15:39:21.478Z,1.3
2023-03-22T15:40:37.712Z,1.3
2023-03-22T15:41:53.948Z,1.1
2023-03-22T15:43:10.226Z,1.2
2023-03-22T15:44:26.458Z,1.3
2023-03-22T15:45:42.670Z,1.4
2023-03-22T15:46:57.931Z,1.1
2023-03-22T15:48:14.165Z,1.3
2023-03-22T15:49:30.407Z,1.2
2023-03-22T15:50:46.637Z,1.5
2023-03-22T15:52:02.880Z,1.3
2023-03-22T15:53:19.122Z,1.2
2023-03-22T15:54:35.389Z,1.4
2023-03-22T15:55:51.636Z,1.3
2023-03-22T15:57:07.863Z,1.2
2023-03-22T15:58:24.071Z,1.3
2023-03-22T15:59:40.325Z,1.4
2023-03-22T16:00:56.591Z,1.2
2023-03-22T16:02:12.804Z,1.1
2023-03-22T16:03:28.090Z,1.8
2023-03-22T16:04:44.319Z,1.3
2023-03-22T16:06:00.553Z,1.3
2023-03-22T16:07:16.794Z,1.2
2023-03-22T16:08:33.000Z,1.2
2023-03-22T16:09:49.268Z,1
2023-03-22T16:11:05.514Z,1.1
2023-03-22T16:12:21.751Z,1.6
2023-03-22T16:13:37.968Z,1.1
2023-03-22T16:14:54.213Z,1.3
2023-03-22T16:16:10.453Z,1.4
2023-03-22T16:17:26.719Z,1.3
2023-03-22T16:18:42.955Z,1
2023-03-22T16:19:58.207Z,1
2023-03-22T16:21:14.418Z,1.1
2023-03-22T16:22:30.655Z,1.2
2023-03-22T16:23:46.890Z,1
2023-03-22T16:25:03.167Z,1
2023-03-22T16:26:19.372Z,0.9
2023-03-22T16:27:35.605Z,1.1
2023-03-22T16:28:51.853Z,1
2023-03-22T16:30:08.114Z,1.1
2023-03-22T16:31:24.330Z,1.1
2023-03-22T16:32:40.591Z,1.1
2023-03-22T16:33:56.836Z,0.9
2023-03-22T16:35:13.079Z,1
2023-03-22T16:36:28.295Z,1.1
2023-03-22T16:37:44.571Z,1.3
2023-03-22T16:39:00.788Z,1
2023-03-22T16:40:17.010Z,1.1
2023-03-22T16:41:33.267Z,1.1
2023-03-22T16:42:49.524Z,1
2023-03-22T16:44:05.762Z,1
2023-03-22T16:45:21.998Z,1
2023-03-22T16:46:38.247Z,1
2023-03-22T16:47:54.488Z,0.8
2023-03-22T16:49:10.727Z,1
2023-03-22T16:50:26.951Z,1
2023-03-22T16:51:43.201Z,1
2023-03-22T16:52:58.416Z,1.1
2023-03-22T16:54:14.670Z,1.4
2023-03-22T16:55:30.898Z,1.2
2023-03-22T16:56:47.166Z,1.1
2023-03-22T16:58:03.372Z,1.3
2023-03-22T16:59:19.624Z,1.3
2023-03-22T17:00:35.881Z,1.5
2023-03-22T17:01:52.122Z,1.5
2023-03-22T17:03:08.358Z,1.7
2023-03-22T17:04:24.602Z,1.4
2023-03-22T17:05:40.816Z,1.6
2023-03-22T17:06:57.000Z,1.7
2023-03-22T17:08:13.281Z,2.4
2023-03-22T17:09:28.547Z,2.3
2023-03-22T17:10:44.808Z,2.2
2023-03-22T17:12:01.016Z,2.4
2023-03-22T17:13:17.286Z,2
2023-03-22T17:14:33.535Z,2.6
2023-03-22T17:15:49.744Z,1.8
2023-03-22T17:17:05.000Z,1.3
2023-03-22T17:18:21.245Z,1.4
2023-03-22T17:19:37.502Z,1.2
2023-03-22T17:20:53.748Z,1.5
2023-03-22T17:22:09.983Z,1.2
2023-03-22T17:23:26.226Z,1.3
2023-03-22T17:24:42.442Z,1.3
2023-03-22T17:25:58.672Z,1.1
2023-03-22T17:27:14.939Z,1.6
2023-03-22T17:28:31.178Z,2.2
2023-03-22T17:29:47.380Z,1.7
2023-03-22T17:31:03.622Z,2.2
2023-03-22T17:32:19.864Z,2.5
2023-03-22T17:33:35.153Z,1.7
2023-03-22T17:34:51.399Z,1.7
2023-03-22T17:36:07.600Z,1.7
2023-03-22T17:37:23.832Z,1.6
2023-03-22T17:38:40.071Z,2
2023-03-22T17:39:56.357Z,2.2
2023-03-22T17:41:12.589Z,1.8
2023-03-22T17:42:28.783Z,2
2023-03-22T17:43:45.030Z,1.7
2023-03-22T17:45:01.258Z,1.8
2023-03-22T17:46:17.543Z,1.6
2023-03-22T17:47:33.738Z,1.8
2023-03-22T17:48:50.037Z,2.1
2023-03-22T17:50:05.339Z,2.1
2023-03-22T17:51:21.634Z,1.8
2023-03-22T17:52:37.927Z,2.2
2023-03-22T17:53:54.265Z,2
2023-03-22T17:55:10.554Z,2.2
2023-03-22T17:56:26.805Z,2
2023-03-22T17:57:43.131Z,1.5
2023-03-22T17:58:59.393Z,1.5
2023-03-22T18:00:15.721Z,1.5
2023-03-22T18:01:32.018Z,1.5
2023-03-22T18:02:48.313Z,1.5
2023-03-22T18:04:04.596Z,1.5
2023-03-22T18:05:20.887Z,1.6
2023-03-22T18:06:36.167Z,1.3